<?xml version='1.0' encoding='UTF-8'?>
<gpx xmlns="http://www.topografix.com/GPX/1/1" creator="www.balnam.be" version="1.1" xmlns:xsi="http://www.w3.org/2001/XMLSchema-instance" xsi:schemaLocation="http://www.topografix.com/GPX/1/1 http://www.topografix.com/GPX/1/1/gpx.xsd">
<trk>
<name>hfmsb13</name>
<cmt>q</cmt>
<desc>Sars-la-Bruyère Sentier n°13 Rue des Écoles / Place de Sars-la-Bruyère</desc>
<link href="https://chemins.be/sarslabruyere/sentier/13"/><trkseg>
<trkpt lat="50.385568" lon="3.885545"><time>2026-05-04T18:28:56Z</time></trkpt>
<trkpt lat="50.383689" lon="3.884042"><time>2026-05-04T18:38:56Z</time></trkpt>
<trkpt lat="50.382320" lon="3.884028"><time>2026-05-04T18:48:56Z</time></trkpt>
<trkpt lat="50.381399" lon="3.884257"><time>2026-05-04T18:58:56Z</time></trkpt>
</trkseg></trk>
<trk>
<name>hfmsb13</name>
<cmt>v</cmt>
<desc>Sars-la-Bruyère Sentier n°13 Rue des Écoles / Place de Sars-la-Bruyère</desc>
<link href="https://chemins.be/sarslabruyere/sentier/13"/><trkseg>
<trkpt lat="50.381399" lon="3.884257"><time>2026-05-04T18:58:56Z</time></trkpt>
<trkpt lat="50.374466" lon="3.878622"><time>2026-05-04T19:08:56Z</time></trkpt>
<trkpt lat="50.374208" lon="3.878536"><time>2026-05-04T19:18:56Z</time></trkpt>
<trkpt lat="50.374113" lon="3.878643"><time>2026-05-04T19:28:56Z</time></trkpt>
</trkseg></trk>
<trk>
<name>hfmsb13</name>
<cmt>q</cmt>
<desc>Sars-la-Bruyère Sentier n°13 Rue des Écoles / Place de Sars-la-Bruyère</desc>
<link href="https://chemins.be/sarslabruyere/sentier/13"/><trkseg>
<trkpt lat="50.374113" lon="3.878643"><time>2026-05-04T19:28:56Z</time></trkpt>
<trkpt lat="50.373647" lon="3.878404"><time>2026-05-04T19:38:56Z</time></trkpt>
<trkpt lat="50.372990" lon="3.877568"><time>2026-05-04T19:48:56Z</time></trkpt>
<trkpt lat="50.372497" lon="3.877417"><time>2026-05-04T19:58:56Z</time></trkpt>
<trkpt lat="50.371998" lon="3.877889"><time>2026-05-04T20:08:56Z</time></trkpt>
</trkseg></trk>
<trk>
<name>hfmsb13</name>
<cmt>r</cmt>
<desc>Sars-la-Bruyère Sentier n°13 Rue des Écoles / Place de Sars-la-Bruyère</desc>
<link href="https://chemins.be/sarslabruyere/sentier/13"/><trkseg>
<trkpt lat="50.371998" lon="3.877889"><time>2026-05-04T20:08:56Z</time></trkpt>
<trkpt lat="50.371796" lon="3.878439"><time>2026-05-04T20:18:56Z</time></trkpt>
<trkpt lat="50.371129" lon="3.878080"><time>2026-05-04T20:28:56Z</time></trkpt>
</trkseg></trk>
<trk>
<name>hfmsb13</name>
<cmt>v</cmt>
<desc>Sars-la-Bruyère Sentier n°13 Rue des Écoles / Place de Sars-la-Bruyère</desc>
<link href="https://chemins.be/sarslabruyere/sentier/13"/><trkseg>
<trkpt lat="50.371129" lon="3.878080"><time>2026-05-04T20:28:56Z</time></trkpt>
<trkpt lat="50.370589" lon="3.877043"><time>2026-05-04T20:38:56Z</time></trkpt>
<trkpt lat="50.369846" lon="3.875546"><time>2026-05-04T20:48:56Z</time></trkpt>
<trkpt lat="50.369001" lon="3.874059"><time>2026-05-04T20:58:56Z</time></trkpt>
<trkpt lat="50.367998" lon="3.872276"><time>2026-05-04T21:08:56Z</time></trkpt>
<trkpt lat="50.366593" lon="3.867596"><time>2026-05-04T21:18:56Z</time></trkpt>
<trkpt lat="50.365745" lon="3.866874"><time>2026-05-04T21:28:56Z</time></trkpt>
<trkpt lat="50.364660" lon="3.865494"><time>2026-05-04T21:38:56Z</time></trkpt>
</trkseg></trk>
<trk>
<name>hfmsb13</name>
<cmt>r</cmt>
<desc>Sars-la-Bruyère Sentier n°13 Rue des Écoles / Place de Sars-la-Bruyère</desc>
<link href="https://chemins.be/sarslabruyere/sentier/13"/><trkseg>
<trkpt lat="50.364660" lon="3.865494"><time>2026-05-04T21:38:56Z</time></trkpt>
<trkpt lat="50.363931" lon="3.865263"><time>2026-05-04T21:48:56Z</time></trkpt>
</trkseg></trk>
<trk>
<name>hfmsb13</name>
<cmt>v</cmt>
<desc>Sars-la-Bruyère Sentier n°13 Rue des Écoles / Place de Sars-la-Bruyère</desc>
<link href="https://chemins.be/sarslabruyere/sentier/13"/><trkseg>
<trkpt lat="50.363931" lon="3.865263"><time>2026-05-04T21:48:56Z</time></trkpt>
<trkpt lat="50.363443" lon="3.864846"><time>2026-05-04T21:58:56Z</time></trkpt>
<trkpt lat="50.362808" lon="3.865542"><time>2026-05-04T22:08:56Z</time></trkpt>
<trkpt lat="50.362342" lon="3.866383"><time>2026-05-04T22:18:56Z</time></trkpt>
</trkseg></trk>
<trk>
<name>hfmsb13</name>
<cmt>q</cmt>
<desc>Sars-la-Bruyère Sentier n°13 Rue des Écoles / Place de Sars-la-Bruyère</desc>
<link href="https://chemins.be/sarslabruyere/sentier/13"/><trkseg>
<trkpt lat="50.362342" lon="3.866383"><time>2026-05-04T22:18:56Z</time></trkpt>
<trkpt lat="50.361877" lon="3.866125"><time>2026-05-04T22:28:56Z</time></trkpt>
<trkpt lat="50.357866" lon="3.863969"><time>2026-05-04T22:38:56Z</time></trkpt>
<trkpt lat="50.356004" lon="3.859420"><time>2026-05-04T22:48:56Z</time></trkpt>
<trkpt lat="50.351212" lon="3.857542"><time>2026-05-04T22:58:56Z</time></trkpt>
<trkpt lat="50.350034" lon="3.857349"><time>2026-05-04T23:08:56Z</time></trkpt>
<trkpt lat="50.349788" lon="3.857682"><time>2026-05-04T23:18:56Z</time></trkpt>
<trkpt lat="50.348733" lon="3.856351"><time>2026-05-04T23:28:56Z</time></trkpt>
</trkseg>
</trk>
</gpx>